createdAt,value
2023-02-12T00:01:27.544Z,1.90
2023-02-12T00:03:58.570Z,2.08
2023-02-12T00:06:37.342Z,1.90
2023-02-12T00:09:08.324Z,2.30
2023-02-12T00:11:38.752Z,2.22
2023-02-12T00:14:08.510Z,1.88
2023-02-12T00:16:40.101Z,2.72
2023-02-12T00:19:11.514Z,2.20
2023-02-12T00:22:10.406Z,2.25
2023-02-12T00:24:40.367Z,2.20
2023-02-12T00:27:10.920Z,2.22
2023-02-12T00:29:41.688Z,1.95
2023-02-12T00:32:11.608Z,2.17
2023-02-12T00:34:42.671Z,2.30
2023-02-12T00:37:15.109Z,2.05
2023-02-12T00:39:45.839Z,2.47
2023-02-12T00:42:15.792Z,2.20
2023-02-12T00:44:48.501Z,2.67
2023-02-12T00:47:19.165Z,2.40
2023-02-12T00:49:52.504Z,2.88
2023-02-12T00:52:22.873Z,2.72
2023-02-12T00:54:53.028Z,2.83
2023-02-12T00:57:24.473Z,2.67
2023-02-12T00:59:55.323Z,2.58
2023-02-12T01:05:16.963Z,2.58
2023-02-12T01:07:53.906Z,2.88
2023-02-12T01:10:25.440Z,2.40
2023-02-12T01:12:55.621Z,2.33
2023-02-12T01:15:26.405Z,2.85
2023-02-12T01:18:09.190Z,2.65
2023-02-12T01:20:42.912Z,2.28
2023-02-12T01:23:13.353Z,3.20
2023-02-12T01:25:43.544Z,2.92
2023-02-12T01:28:20.335Z,2.75
2023-02-12T01:30:58.236Z,2.40
2023-02-12T01:33:30.019Z,2.80
2023-02-12T01:36:08.117Z,2.70
2023-02-12T01:38:39.636Z,2.50
2023-02-12T01:41:18.852Z,2.78
2023-02-12T01:44:19.662Z,2.40
2023-02-12T01:46:55.757Z,2.65
2023-02-12T01:49:30.666Z,2.60
2023-02-12T01:52:23.149Z,2.85
2023-02-12T01:54:57.363Z,2.75
2023-02-12T01:57:29.730Z,2.47
2023-02-12T02:00:04.173Z,2.20
2023-02-12T02:02:48.392Z,2.78
2023-02-12T02:05:46.498Z,2.42
2023-02-12T02:08:17.722Z,2.40
2023-02-12T02:10:47.727Z,3.00
2023-02-12T02:13:37.484Z,2.80
2023-02-12T02:16:21.511Z,3.00
2023-02-12T02:18:51.892Z,3.17
2023-02-12T02:22:04.123Z,2.90
2023-02-12T02:24:53.907Z,3.20
2023-02-12T02:27:49.353Z,3.38
2023-02-12T02:30:35.997Z,3.13
2023-02-12T02:33:16.125Z,3.05
2023-02-12T02:36:07.745Z,3.58
2023-02-12T02:38:53.335Z,3.40
2023-02-12T02:41:40.558Z,3.50
2023-02-12T02:44:23.546Z,3.35
2023-02-12T02:47:11.820Z,3.65
2023-02-12T02:49:55.131Z,3.90
2023-02-12T02:52:54.218Z,3.70
2023-02-12T02:55:28.467Z,3.50
2023-02-12T02:58:08.887Z,3.42
2023-02-12T03:00:51.376Z,3.25
2023-02-12T03:03:34.630Z,3.72
2023-02-12T03:06:41.448Z,3.80
2023-02-12T03:09:32.201Z,3.83
2023-02-12T03:12:07.981Z,3.90
2023-02-12T03:14:44.243Z,4.10
2023-02-12T03:17:26.527Z,3.88
2023-02-12T03:20:26.092Z,3.63
2023-02-12T03:23:31.325Z,4.00
2023-02-12T03:26:14.130Z,4.18
2023-02-12T03:28:44.481Z,4.00
2023-02-12T03:31:26.341Z,3.38
2023-02-12T03:34:20.917Z,4.45
2023-02-12T03:37:11.133Z,3.67
2023-02-12T03:40:33.582Z,4.03
2023-02-12T03:43:10.752Z,4.05
2023-02-12T03:48:51.837Z,4.57
2023-02-12T03:54:30.057Z,4.20
2023-02-12T03:57:09.365Z,3.95
2023-02-12T03:59:44.190Z,4.82
2023-02-12T04:02:17.525Z,4.78
2023-02-12T04:04:49.424Z,4.30
2023-02-12T04:07:20.173Z,4.15
2023-02-12T04:09:51.115Z,5.03
2023-02-12T04:12:45.237Z,4.13
2023-02-12T04:18:29.355Z,4.15
2023-02-12T04:21:19.924Z,4.13
2023-02-12T04:24:10.427Z,4.60
2023-02-12T04:27:13.977Z,4.50
2023-02-12T04:29:49.715Z,4.25
2023-02-12T04:35:17.908Z,4.30
2023-02-12T04:40:25.029Z,4.80
2023-02-12T04:42:56.464Z,4.78
2023-02-12T04:45:33.095Z,4.90
2023-02-12T04:48:03.794Z,4.18
2023-02-12T04:53:30.881Z,4.22
2023-02-12T04:56:02.391Z,3.70
2023-02-12T04:58:32.531Z,3.97
2023-02-12T05:01:02.630Z,4.57
2023-02-12T05:03:33.074Z,4.57
2023-02-12T05:06:10.558Z,4.30
2023-02-12T05:08:50.330Z,4.32
2023-02-12T05:11:21.103Z,5.00
2023-02-12T05:14:12.320Z,4.35
2023-02-12T05:16:42.966Z,3.50
2023-02-12T05:19:21.761Z,3.58
2023-02-12T05:21:52.831Z,4.07
2023-02-12T05:24:23.018Z,4.60
2023-02-12T05:26:54.685Z,4.22
2023-02-12T05:29:24.480Z,3.35
2023-02-12T05:32:03.146Z,4.38
2023-02-12T05:34:33.674Z,3.83
2023-02-12T05:37:03.866Z,4.47
2023-02-12T05:39:34.043Z,4.50
2023-02-12T05:42:23.179Z,4.82
2023-02-12T05:44:55.327Z,4.55
2023-02-12T05:47:25.841Z,4.90
2023-02-12T05:49:55.585Z,4.85
2023-02-12T05:52:25.941Z,4.15
2023-02-12T05:54:56.048Z,5.03
2023-02-12T05:57:26.916Z,4.47
2023-02-12T05:59:57.347Z,4.25
2023-02-12T06:02:27.362Z,3.72
2023-02-12T06:04:57.737Z,4.60
2023-02-12T06:07:36.345Z,3.95
2023-02-12T06:10:08.796Z,4.95
2023-02-12T06:12:39.583Z,5.10
2023-02-12T06:15:09.852Z,5.05
2023-02-12T06:17:41.207Z,4.75
2023-02-12T06:20:12.603Z,4.75
2023-02-12T06:22:43.288Z,5.13
2023-02-12T06:28:12.882Z,4.60
2023-02-12T06:30:45.548Z,4.45
2023-02-12T06:33:21.999Z,4.32
2023-02-12T06:35:52.952Z,4.38
2023-02-12T06:38:23.323Z,5.32
2023-02-12T06:40:53.571Z,4.47
2023-02-12T06:43:23.774Z,4.93
2023-02-12T06:46:14.250Z,4.63
2023-02-12T06:48:54.461Z,4.47
2023-02-12T06:51:25.035Z,3.97
2023-02-12T06:53:57.743Z,4.25
2023-02-12T06:56:38.343Z,4.15
2023-02-12T06:59:08.524Z,4.07
2023-02-12T07:01:38.549Z,4.20
2023-02-12T07:04:09.141Z,3.97
2023-02-12T07:06:40.225Z,3.67
2023-02-12T07:09:11.651Z,3.85
2023-02-12T07:11:44.759Z,3.78
2023-02-12T07:14:18.730Z,4.20
2023-02-12T07:16:49.332Z,3.88
2023-02-12T07:19:28.483Z,4.05
2023-02-12T07:22:08.193Z,3.85
2023-02-12T07:24:40.138Z,3.47
2023-02-12T07:27:11.744Z,3.47
2023-02-12T07:29:54.157Z,3.35
2023-02-12T07:32:24.414Z,3.35
2023-02-12T07:34:59.137Z,3.40
2023-02-12T07:37:30.081Z,3.53
2023-02-12T07:40:01.119Z,3.20
2023-02-12T07:42:41.768Z,3.38
2023-02-12T07:45:12.600Z,3.92
2023-02-12T07:47:42.935Z,3.42
2023-02-12T07:50:13.857Z,3.80
2023-02-12T07:52:44.047Z,3.60
2023-02-12T07:55:15.409Z,3.63
2023-02-12T07:57:45.555Z,2.95
2023-02-12T08:00:18.247Z,2.90
2023-02-12T08:02:54.821Z,3.47
2023-02-12T08:05:25.656Z,3.30
2023-02-12T08:07:56.091Z,4.07
2023-02-12T08:10:30.129Z,3.80
2023-02-12T08:13:01.987Z,4.05
2023-02-12T08:15:32.012Z,3.80
2023-02-12T08:18:02.772Z,4.05
2023-02-12T08:20:36.097Z,4.10
2023-02-12T08:23:06.250Z,3.95
2023-02-12T08:25:35.953Z,4.35
2023-02-12T08:28:07.929Z,3.85
2023-02-12T08:30:38.662Z,3.80
2023-02-12T08:33:36.172Z,3.40
2023-02-12T08:36:15.714Z,2.97
2023-02-12T08:38:47.280Z,3.30
2023-02-12T08:41:21.765Z,3.70
2023-02-12T08:43:58.287Z,3.65
2023-02-12T08:46:30.850Z,3.60
2023-02-12T08:49:08.009Z,3.22
2023-02-12T08:51:40.292Z,4.22
2023-02-12T08:54:14.445Z,3.42
2023-02-12T08:56:46.779Z,3.70
2023-02-12T08:59:18.746Z,4.03
2023-02-12T09:01:54.037Z,3.13
2023-02-12T09:04:27.523Z,3.40
2023-02-12T09:06:57.936Z,3.38
2023-02-12T09:09:28.028Z,3.28
2023-02-12T09:11:58.291Z,3.83
2023-02-12T09:14:28.475Z,3.53
2023-02-12T09:16:59.407Z,4.13
2023-02-12T09:19:29.722Z,3.63
2023-02-12T09:21:59.466Z,3.28
2023-02-12T09:24:30.537Z,3.80
2023-02-12T09:27:01.049Z,3.47
2023-02-12T09:29:32.695Z,3.00
2023-02-12T09:32:07.138Z,3.30
2023-02-12T09:34:38.209Z,3.60
2023-02-12T09:37:19.487Z,4.15
2023-02-12T09:39:51.249Z,3.10
2023-02-12T09:42:40.358Z,3.50
2023-02-12T09:45:27.820Z,3.75
2023-02-12T09:48:13.658Z,3.85
2023-02-12T09:51:01.806Z,3.70
2023-02-12T09:53:34.074Z,3.58
2023-02-12T09:56:04.264Z,3.70
2023-02-12T09:58:42.690Z,3.90
2023-02-12T10:01:19.557Z,4.30
2023-02-12T10:03:54.856Z,3.90
2023-02-12T10:06:39.894Z,4.30
2023-02-12T10:09:37.186Z,4.18
2023-02-12T10:12:24.384Z,4.60
2023-02-12T10:15:03.803Z,4.45
2023-02-12T10:18:03.401Z,4.10
2023-02-12T10:20:47.752Z,4.35
2023-02-12T10:23:41.362Z,3.83
2023-02-12T10:26:28.162Z,4.25
2023-02-12T10:29:14.772Z,3.30
2023-02-12T10:31:51.479Z,3.15
2023-02-12T10:34:25.873Z,3.08
2023-02-12T10:37:21.390Z,3.03
2023-02-12T10:40:02.164Z,3.00
2023-02-12T10:42:44.966Z,2.58
2023-02-12T10:45:21.384Z,2.22
2023-02-12T10:48:24.447Z,2.20
2023-02-12T10:51:05.988Z,2.30
2023-02-12T10:53:42.589Z,1.85
2023-02-12T10:56:22.171Z,2.13
2023-02-12T10:58:57.978Z,1.90
2023-02-12T11:01:38.843Z,2.10
2023-02-12T11:04:31.621Z,1.95
2023-02-12T11:07:05.879Z,1.77
2023-02-12T11:09:46.454Z,2.03
2023-02-12T11:12:25.076Z,1.70
2023-02-12T11:15:44.179Z,2.00
2023-02-12T11:18:06.010Z,1.80
2023-02-12T11:20:50.179Z,1.60
2023-02-12T11:23:29.665Z,2.00
2023-02-12T11:26:08.861Z,1.75
2023-02-12T11:28:40.197Z,1.80
2023-02-12T11:31:16.239Z,2.10
2023-02-12T11:33:46.839Z,2.00
2023-02-12T11:36:28.716Z,1.90
2023-02-12T11:39:01.785Z,2.10
2023-02-12T11:41:37.533Z,1.75
2023-02-12T11:44:21.022Z,2.28
2023-02-12T11:46:59.157Z,2.08
2023-02-12T11:49:36.086Z,1.80
2023-02-12T11:52:07.642Z,1.90
2023-02-12T11:54:49.679Z,1.77
2023-02-12T11:57:40.461Z,1.98
2023-02-12T12:00:37.166Z,1.88
2023-02-12T12:03:19.987Z,1.90
2023-02-12T12:06:02.335Z,2.20
2023-02-12T12:08:35.203Z,1.85
2023-02-12T12:11:38.371Z,1.80
2023-02-12T12:14:29.732Z,1.80
2023-02-12T12:17:45.875Z,2.03
2023-02-12T12:20:23.648Z,1.95
2023-02-12T12:23:13.360Z,2.47
2023-02-12T12:25:50.994Z,2.40
2023-02-12T12:29:47.856Z,2.00
2023-02-12T12:31:55.359Z,2.20
2023-02-12T12:34:29.107Z,2.90
2023-02-12T12:37:36.756Z,2.13
2023-02-12T12:40:21.780Z,3.08
2023-02-12T12:42:57.954Z,2.30
2023-02-12T12:45:35.879Z,2.42
2023-02-12T12:48:32.015Z,2.85
2023-02-12T12:51:27.832Z,2.10
2023-02-12T12:54:09.736Z,2.70
2023-02-12T12:56:52.216Z,2.35
2023-02-12T12:59:47.792Z,2.17
2023-02-12T13:02:54.899Z,2.63
2023-02-12T13:05:32.414Z,2.20
2023-02-12T13:08:21.111Z,2.00
2023-02-12T13:11:16.215Z,2.42
2023-02-12T13:13:50.018Z,2.80
2023-02-12T13:16:53.331Z,2.70
2023-02-12T13:20:02.158Z,2.92
2023-02-12T13:22:49.685Z,2.55
2023-02-12T13:25:41.998Z,3.10
2023-02-12T13:28:20.378Z,3.25
2023-02-12T13:30:53.336Z,3.92
2023-02-12T13:33:29.722Z,3.45
2023-02-12T13:36:06.188Z,8.82
2023-02-12T13:39:28.156Z,2.70
2023-02-12T13:42:27.405Z,2.38
2023-02-12T13:45:23.820Z,2.47
2023-02-12T13:47:59.180Z,2.47
2023-02-12T13:50:58.227Z,2.38
2023-02-12T13:54:03.253Z,2.60
2023-02-12T13:56:48.422Z,2.50
2023-02-12T13:59:38.052Z,2.10
2023-02-12T14:02:13.983Z,2.60
2023-02-12T14:05:22.993Z,2.33
2023-02-12T14:07:54.965Z,2.17
2023-02-12T14:10:42.030Z,2.55
2023-02-12T14:15:55.941Z,2.60
2023-02-12T14:18:37.122Z,3.10
2023-02-12T14:21:11.781Z,2.60
2023-02-12T14:23:43.630Z,2.47
2023-02-12T14:26:25.883Z,2.47
2023-02-12T14:29:18.283Z,2.50
2023-02-12T14:31:49.555Z,2.33
2023-02-12T14:34:19.471Z,1.77
2023-02-12T14:37:00.605Z,1.73
2023-02-12T14:39:32.015Z,1.70
2023-02-12T14:42:12.154Z,2.38
2023-02-12T14:44:57.322Z,2.33
2023-02-12T14:47:33.477Z,2.28
2023-02-12T14:50:26.404Z,2.13
2023-02-12T14:53:33.994Z,2.20
2023-02-12T14:56:05.143Z,2.20
2023-02-12T14:58:35.513Z,1.73
2023-02-12T15:01:07.661Z,2.08
2023-02-12T15:03:51.679Z,2.03
2023-02-12T15:06:28.749Z,2.63
2023-02-12T15:09:19.077Z,1.90
2023-02-12T15:11:57.110Z,2.83
2023-02-12T15:14:36.596Z,1.90
2023-02-12T15:17:31.342Z,1.75
2023-02-12T15:20:08.284Z,1.60
2023-02-12T15:22:43.253Z,1.88
2023-02-12T15:25:31.347Z,1.95
2023-02-12T15:28:17.216Z,1.60
2023-02-12T15:30:48.373Z,1.73
2023-02-12T15:33:34.857Z,1.80
2023-02-12T15:36:09.056Z,2.05
2023-02-12T15:38:43.310Z,1.92
2023-02-12T15:41:36.143Z,1.85
2023-02-12T15:44:27.888Z,1.80
2023-02-12T15:47:13.688Z,1.90
2023-02-12T15:49:45.084Z,2.08
2023-02-12T15:52:26.267Z,2.10
2023-02-12T15:54:58.731Z,2.20
2023-02-12T15:57:30.372Z,2.20
2023-02-12T16:00:11.966Z,2.03
2023-02-12T16:02:45.145Z,2.20
2023-02-12T16:05:19.146Z,2.13
2023-02-12T16:07:51.768Z,2.13
2023-02-12T16:10:23.117Z,2.05
2023-02-12T16:12:54.842Z,2.15
2023-02-12T16:15:36.533Z,1.83
2023-02-12T16:18:08.048Z,1.40
2023-02-12T16:20:38.105Z,1.98
2023-02-12T16:23:09.433Z,1.42
2023-02-12T16:25:41.428Z,1.50
2023-02-12T16:28:25.327Z,1.55
2023-02-12T16:31:08.010Z,1.40
2023-02-12T16:33:47.364Z,1.50
2023-02-12T16:36:25.146Z,1.50
2023-02-12T16:39:00.037Z,1.45
2023-02-12T16:41:36.805Z,1.38
2023-02-12T16:44:07.432Z,1.50
2023-02-12T16:46:46.897Z,1.52
2023-02-12T16:49:25.846Z,1.35
2023-02-12T16:52:15.652Z,1.42
2023-02-12T16:54:45.818Z,4.82
2023-02-12T16:57:16.095Z,1.20
2023-02-12T16:59:47.561Z,1.52
2023-02-12T17:02:18.099Z,1.70
2023-02-12T17:04:47.836Z,1.70
2023-02-12T17:07:24.642Z,1.25
2023-02-12T17:09:55.075Z,1.60
2023-02-12T17:12:25.846Z,1.60
2023-02-12T17:14:57.113Z,1.67
2023-02-12T17:17:27.149Z,1.90
2023-02-12T17:19:57.326Z,1.60
2023-02-12T17:22:29.730Z,1.70
2023-02-12T17:25:22.986Z,1.92
2023-02-12T17:27:53.255Z,1.77
2023-02-12T17:30:23.655Z,2.25
2023-02-12T17:32:54.390Z,2.03
2023-02-12T17:35:34.518Z,1.70
2023-02-12T17:40:38.124Z,1.65
2023-02-12T17:43:09.419Z,1.77
2023-02-12T17:45:44.154Z,1.80
2023-02-12T17:48:18.941Z,1.80
2023-02-12T17:50:57.755Z,1.70
2023-02-12T17:53:29.104Z,1.88
2023-02-12T17:55:59.837Z,1.35
2023-02-12T17:58:29.797Z,1.75
2023-02-12T18:01:07.666Z,1.77
2023-02-12T18:03:38.883Z,1.70
2023-02-12T18:06:12.151Z,1.92
2023-02-12T18:08:43.457Z,1.52
2023-02-12T18:11:16.226Z,1.70
2023-02-12T18:13:47.615Z,1.88
2023-02-12T18:16:18.810Z,1.70
2023-02-12T18:18:50.344Z,1.80
2023-02-12T18:21:21.588Z,1.83
2023-02-12T18:23:55.799Z,1.70
2023-02-12T18:26:25.904Z,1.95
2023-02-12T18:28:55.658Z,1.75
2023-02-12T18:31:26.290Z,2.00
2023-02-12T18:33:57.228Z,2.33
2023-02-12T18:36:28.821Z,2.03
2023-02-12T18:39:01.997Z,1.88
2023-02-12T18:41:35.513Z,1.90
2023-02-12T18:44:07.642Z,1.92
2023-02-12T18:46:39.732Z,2.40
2023-02-12T18:49:32.985Z,2.17
2023-02-12T18:52:04.249Z,2.13
2023-02-12T18:54:34.987Z,2.67
2023-02-12T18:57:05.770Z,2.78
2023-02-12T18:59:35.554Z,2.47
2023-02-12T19:02:34.519Z,2.30
2023-02-12T19:05:05.641Z,2.50
2023-02-12T19:07:36.218Z,2.55
2023-02-12T19:10:08.085Z,2.22
2023-02-12T19:12:43.063Z,2.45
2023-02-12T19:15:14.269Z,2.15
2023-02-12T19:17:44.763Z,2.20
2023-02-12T19:20:16.197Z,2.10
2023-02-12T19:22:47.312Z,1.92
2023-02-12T19:25:19.763Z,2.00
2023-02-12T19:28:01.641Z,1.90
2023-02-12T19:30:31.685Z,2.75
2023-02-12T19:33:01.692Z,2.60
2023-02-12T19:35:52.145Z,1.77
2023-02-12T19:38:23.487Z,2.17
2023-02-12T19:41:03.187Z,2.40
2023-02-12T19:43:34.250Z,1.92
2023-02-12T19:46:10.322Z,2.50
2023-02-12T19:48:45.229Z,2.13
2023-02-12T19:51:21.503Z,2.20
2023-02-12T19:53:54.383Z,3.45
2023-02-12T19:56:24.629Z,2.42
2023-02-12T19:58:55.359Z,2.22
2023-02-12T20:01:27.340Z,2.05
2023-02-12T20:03:59.789Z,2.22
2023-02-12T20:06:33.824Z,2.03
2023-02-12T20:09:06.205Z,2.42
2023-02-12T20:11:41.477Z,2.05
2023-02-12T20:14:14.142Z,1.60
2023-02-12T20:16:49.480Z,2.10
2023-02-12T20:19:40.279Z,2.30
2023-02-12T20:22:10.624Z,2.22
2023-02-12T20:25:14.915Z,2.00
2023-02-12T20:27:36.231Z,2.10
2023-02-12T20:30:08.434Z,2.20
2023-02-12T20:32:41.916Z,2.20
2023-02-12T20:35:12.964Z,2.25
2023-02-12T20:37:45.998Z,1.88
2023-02-12T20:40:29.425Z,2.10
2023-02-12T20:42:59.939Z,2.10
2023-02-12T20:45:29.964Z,2.10
2023-02-12T20:48:01.431Z,1.90
2023-02-12T20:50:32.527Z,2.13
2023-02-12T20:53:03.493Z,2.30
2023-02-12T20:55:35.994Z,2.60
2023-02-12T20:58:06.671Z,2.95
2023-02-12T21:00:57.275Z,3.88
2023-02-12T21:03:40.134Z,4.30
2023-02-12T21:06:10.853Z,3.53
2023-02-12T21:08:42.976Z,3.28
2023-02-12T21:11:17.495Z,3.33
2023-02-12T21:13:59.367Z,3.05
2023-02-12T21:16:35.892Z,2.88
2023-02-12T21:19:06.793Z,3.35
2023-02-12T21:21:40.218Z,3.75
2023-02-12T21:24:14.962Z,3.28
2023-02-12T21:26:45.486Z,3.47
2023-02-12T21:29:16.460Z,3.72
2023-02-12T21:31:50.024Z,3.00
2023-02-12T21:34:22.933Z,3.70
2023-02-12T21:36:57.273Z,3.65
2023-02-12T21:39:29.345Z,3.63
2023-02-12T21:42:03.951Z,3.60
2023-02-12T21:44:36.736Z,3.78
2023-02-12T21:47:08.556Z,4.07
2023-02-12T21:49:39.713Z,4.13
2023-02-12T21:52:10.445Z,3.83
2023-02-12T21:55:00.564Z,3.72
2023-02-12T21:57:30.859Z,3.42
2023-02-12T22:00:11.374Z,3.30
2023-02-12T22:02:44.453Z,3.08
2023-02-12T22:05:14.487Z,3.45
2023-02-12T22:08:04.396Z,3.10
2023-02-12T22:10:39.791Z,2.63
2023-02-12T22:13:11.232Z,2.70
2023-02-12T22:15:41.652Z,3.25
2023-02-12T22:18:12.032Z,2.80
2023-02-12T22:20:42.279Z,2.72
2023-02-12T22:23:13.599Z,2.50
2023-02-12T22:25:43.782Z,2.25
2023-02-12T22:28:13.570Z,2.38
2023-02-12T22:30:45.193Z,1.98
2023-02-12T22:33:16.119Z,2.47
2023-02-12T22:35:46.349Z,2.40
2023-02-12T22:38:26.548Z,2.45
2023-02-12T22:40:57.746Z,2.42
2023-02-12T22:43:32.364Z,2.42
2023-02-12T22:46:03.538Z,2.42
2023-02-12T22:48:33.741Z,2.38
2023-02-12T22:51:20.301Z,2.60
2023-02-12T22:53:51.170Z,2.42
2023-02-12T22:56:21.706Z,2.72
2023-02-12T22:58:59.139Z,2.70
2023-02-12T23:01:31.510Z,2.30
2023-02-12T23:04:01.991Z,2.40
2023-02-12T23:06:33.814Z,2.55
2023-02-12T23:09:05.827Z,2.60
2023-02-12T23:11:36.498Z,2.65
2023-02-12T23:14:07.067Z,2.53
2023-02-12T23:16:37.721Z,2.80
2023-02-12T23:19:07.507Z,2.65
2023-02-12T23:21:38.648Z,2.78
2023-02-12T23:24:10.063Z,3.05
2023-02-12T23:26:42.621Z,2.65
2023-02-12T23:29:13.105Z,2.25
2023-02-12T23:31:44.326Z,3.05
2023-02-12T23:34:17.716Z,2.88
2023-02-12T23:36:48.280Z,3.58
2023-02-12T23:39:18.054Z,2.83
2023-02-12T23:41:51.440Z,2.97
2023-02-12T23:44:22.635Z,2.55
2023-02-12T23:46:54.955Z,2.90
2023-02-12T23:49:26.132Z,3.00
2023-02-12T23:51:56.312Z,2.83
2023-02-12T23:54:27.545Z,3.03
2023-02-12T23:56:58.082Z,2.42
2023-02-12T23:59:28.639Z,2.53
